createdAt,value
2018-12-07T00:00:26.383Z,46.20
2018-12-07T00:02:56.453Z,45.57
2018-12-07T00:05:26.373Z,44.57
2018-12-07T00:07:57.103Z,46.23
2018-12-07T00:10:27.141Z,48.43
2018-12-07T00:12:57.107Z,46.13
2018-12-07T00:15:27.199Z,47.33
2018-12-07T00:17:57.169Z,50.40
2018-12-07T00:20:27.330Z,55.10
2018-12-07T00:22:57.345Z,47.63
2018-12-07T00:25:27.369Z,51.07
2018-12-07T00:27:57.349Z,51.47
2018-12-07T00:30:27.422Z,53.07
2018-12-07T00:32:57.388Z,54.13
2018-12-07T00:35:27.429Z,48.20
2018-12-07T00:37:57.322Z,50.23
2018-12-07T00:40:27.298Z,50.63
2018-12-07T00:42:57.368Z,51.60
2018-12-07T00:45:27.253Z,50.53
2018-12-07T00:47:57.608Z,53.50
2018-12-07T00:50:27.519Z,50.33
2018-12-07T00:52:57.529Z,52.53
2018-12-07T00:55:37.379Z,52.90
2018-12-07T00:58:07.398Z,54.33
2018-12-07T01:00:37.627Z,53.87
2018-12-07T01:03:07.527Z,52.67
2018-12-07T01:05:37.567Z,52.97
2018-12-07T01:08:07.461Z,52.40
2018-12-07T01:10:37.522Z,51.57
2018-12-07T01:13:07.467Z,51.50
2018-12-07T01:15:37.433Z,52.03
2018-12-07T01:18:07.618Z,49.30
2018-12-07T01:20:37.652Z,54.90
2018-12-07T01:23:07.657Z,51.73
2018-12-07T01:25:37.659Z,53.40
2018-12-07T01:28:07.711Z,52.20
2018-12-07T01:30:37.581Z,51.23
2018-12-07T01:33:07.579Z,49.93
2018-12-07T01:35:37.522Z,48.17
2018-12-07T01:38:07.538Z,46.53
2018-12-07T01:40:37.461Z,46.57
2018-12-07T01:43:07.401Z,46.77
2018-12-07T01:45:37.366Z,45.90
2018-12-07T01:48:07.407Z,46.10
2018-12-07T01:50:37.298Z,46.13
2018-12-07T01:53:07.321Z,48.53
2018-12-07T01:55:37.341Z,47.30
2018-12-07T01:58:07.333Z,47.23
2018-12-07T02:00:37.468Z,48.80
2018-12-07T02:03:07.468Z,48.77
2018-12-07T02:05:37.392Z,45.93
2018-12-07T02:08:07.347Z,43.90
2018-12-07T02:10:37.215Z,42.73
2018-12-07T02:13:07.097Z,41.93
2018-12-07T02:15:37.047Z,40.17
2018-12-07T02:18:06.993Z,40.67
2018-12-07T02:20:36.978Z,40.87
2018-12-07T02:23:07.141Z,39.67
2018-12-07T02:25:37.181Z,37.17
2018-12-07T02:28:07.216Z,37.83
2018-12-07T02:30:37.146Z,36.93
2018-12-07T02:33:07.202Z,37.07
2018-12-07T02:35:37.270Z,40.17
2018-12-07T02:38:07.289Z,40.53
2018-12-07T02:40:37.192Z,40.37
2018-12-07T02:43:07.463Z,39.60
2018-12-07T02:45:37.532Z,40.27
2018-12-07T02:48:07.507Z,40.57
2018-12-07T02:50:37.452Z,42.00
2018-12-07T02:53:07.368Z,41.33
2018-12-07T02:55:37.486Z,42.00
2018-12-07T02:58:08.418Z,40.43
2018-12-07T03:00:38.666Z,41.83
2018-12-07T03:03:09.281Z,41.63
2018-12-07T03:05:39.467Z,41.43
2018-12-07T03:08:09.611Z,41.57
2018-12-07T03:10:39.744Z,40.03
2018-12-07T03:13:09.751Z,38.13
2018-12-07T03:15:40.040Z,35.77
2018-12-07T03:21:03.141Z,31.23
2018-12-07T03:23:33.113Z,29.23
2018-12-07T03:26:03.082Z,24.73
2018-12-07T03:28:33.185Z,23.87
2018-12-07T03:31:03.083Z,24.23
2018-12-07T03:33:33.088Z,21.83
2018-12-07T03:36:03.022Z,21.20
2018-12-07T03:38:32.993Z,21.63
2018-12-07T03:41:02.911Z,20.27
2018-12-07T03:43:32.823Z,22.57
2018-12-07T03:46:02.731Z,19.83
2018-12-07T03:48:32.807Z,19.17
2018-12-07T03:51:02.795Z,20.77
2018-12-07T03:53:32.726Z,19.90
2018-12-07T03:56:02.791Z,19.40
2018-12-07T03:58:32.753Z,19.63
2018-12-07T04:01:02.831Z,18.43
2018-12-07T04:03:33.031Z,18.20
2018-12-07T04:06:03.121Z,18.43
2018-12-07T04:08:33.042Z,16.30
2018-12-07T04:11:03.211Z,15.63
2018-12-07T04:13:33.269Z,15.20
2018-12-07T04:16:03.370Z,16.50
2018-12-07T04:18:33.391Z,15.00
2018-12-07T04:21:03.481Z,15.00
2018-12-07T04:23:33.381Z,16.40
2018-12-07T04:26:03.273Z,16.10
2018-12-07T04:28:33.245Z,16.17
2018-12-07T04:31:03.260Z,17.73
2018-12-07T04:33:33.218Z,17.27
2018-12-07T04:36:07.374Z,17.30
2018-12-07T04:38:35.059Z,17.80
2018-12-07T04:41:04.961Z,17.80
2018-12-07T04:43:34.988Z,17.43
2018-12-07T04:46:05.097Z,17.00
2018-12-07T04:48:35.118Z,16.87
2018-12-07T04:51:05.114Z,17.37
2018-12-07T04:53:35.241Z,17.63
2018-12-07T04:56:05.354Z,15.83
2018-12-07T04:58:35.312Z,16.37
2018-12-07T05:01:05.298Z,16.37
2018-12-07T05:03:35.312Z,15.30
2018-12-07T05:06:05.331Z,14.53
2018-12-07T05:08:41.873Z,14.23
2018-12-07T05:11:11.809Z,14.43
2018-12-07T05:13:41.795Z,14.63
2018-12-07T05:16:11.797Z,14.37
2018-12-07T05:18:41.898Z,14.53
2018-12-07T05:21:11.883Z,13.70
2018-12-07T05:23:41.833Z,16.13
2018-12-07T05:26:11.791Z,17.33
2018-12-07T05:28:41.882Z,17.10
2018-12-07T05:31:11.933Z,17.93
2018-12-07T05:33:42.183Z,18.90
2018-12-07T05:36:12.165Z,20.07
2018-12-07T05:38:42.181Z,18.87
2018-12-07T05:41:12.214Z,18.37
2018-12-07T05:46:35.934Z,19.10
2018-12-07T05:49:05.993Z,19.30
2018-12-07T05:51:36.019Z,18.57
2018-12-07T05:54:12.562Z,19.07
2018-12-07T05:56:42.483Z,18.27
2018-12-07T05:59:12.488Z,19.03
2018-12-07T06:01:42.712Z,18.73
2018-12-07T06:04:12.748Z,19.20
2018-12-07T06:06:42.717Z,19.83
2018-12-07T06:09:12.762Z,18.50
2018-12-07T06:11:42.852Z,19.23
2018-12-07T06:14:12.803Z,20.53
2018-12-07T06:16:43.122Z,19.97
2018-12-07T06:19:13.137Z,20.23
2018-12-07T06:21:43.072Z,20.57
2018-12-07T06:24:13.123Z,19.37
2018-12-07T06:26:43.090Z,19.90
2018-12-07T06:29:13.718Z,19.93
2018-12-07T06:31:44.041Z,19.13
2018-12-07T06:34:14.228Z,18.87
2018-12-07T06:36:44.272Z,18.60
2018-12-07T06:39:14.691Z,20.10
2018-12-07T06:41:44.718Z,19.97
2018-12-07T06:44:14.691Z,20.27
2018-12-07T06:46:44.739Z,19.90
2018-12-07T06:49:15.273Z,18.70
2018-12-07T06:51:45.486Z,18.97
2018-12-07T06:54:15.584Z,18.73
2018-12-07T06:56:45.620Z,17.93
2018-12-07T06:59:15.649Z,18.00
2018-12-07T07:01:46.598Z,18.83
2018-12-07T07:04:16.693Z,17.87
2018-12-07T07:06:46.660Z,18.23
2018-12-07T07:09:16.623Z,18.20
2018-12-07T07:11:46.600Z,17.47
2018-12-07T07:14:16.529Z,17.30
2018-12-07T07:16:46.570Z,16.90
2018-12-07T07:19:16.508Z,16.63
2018-12-07T07:21:46.707Z,17.57
2018-12-07T07:24:16.611Z,17.33
2018-12-07T07:26:46.617Z,17.27
2018-12-07T07:29:16.691Z,19.20
2018-12-07T07:31:46.767Z,20.17
2018-12-07T07:34:16.631Z,19.43
2018-12-07T07:36:46.595Z,19.77
2018-12-07T07:39:16.785Z,20.27
2018-12-07T07:41:46.912Z,19.63
2018-12-07T07:44:16.798Z,20.40
2018-12-07T07:46:47.022Z,19.27
2018-12-07T07:49:17.081Z,19.07
2018-12-07T07:51:47.595Z,19.07
2018-12-07T07:54:24.166Z,18.37
2018-12-07T07:56:54.385Z,18.13
2018-12-07T07:59:24.783Z,17.93
2018-12-07T08:01:54.896Z,20.20
2018-12-07T08:04:25.381Z,20.60
2018-12-07T08:06:55.375Z,21.40
2018-12-07T08:09:25.688Z,21.83
2018-12-07T08:11:55.528Z,21.73
2018-12-07T08:14:25.589Z,21.80
2018-12-07T08:16:55.649Z,20.73
2018-12-07T08:19:25.868Z,20.53
2018-12-07T08:21:56.116Z,20.40
2018-12-07T08:24:26.144Z,21.23
2018-12-07T08:26:56.000Z,19.87
2018-12-07T08:29:26.275Z,20.10
2018-12-07T08:31:56.240Z,21.10
2018-12-07T08:34:26.251Z,20.90
2018-12-07T08:36:56.374Z,22.97
2018-12-07T08:39:26.421Z,22.53
2018-12-07T08:41:56.499Z,22.43
2018-12-07T08:44:26.600Z,21.00
2018-12-07T08:46:56.599Z,22.80
2018-12-07T08:49:30.519Z,23.70
2018-12-07T08:52:00.559Z,25.85
2018-12-07T08:54:30.485Z,24.27
2018-12-07T08:57:00.446Z,26.20
2018-12-07T08:59:30.385Z,24.07
2018-12-07T09:02:00.292Z,23.27
2018-12-07T09:04:30.095Z,22.30
2018-12-07T09:07:00.040Z,21.40
2018-12-07T09:09:29.869Z,21.67
2018-12-07T09:11:59.796Z,20.60
2018-12-07T09:14:29.683Z,20.27
2018-12-07T09:16:59.493Z,20.57
2018-12-07T09:19:29.507Z,19.60
2018-12-07T09:21:59.337Z,20.37
2018-12-07T09:24:30.160Z,20.30
2018-12-07T09:26:59.960Z,18.20
2018-12-07T09:29:29.873Z,17.10
2018-12-07T09:31:59.729Z,19.03
2018-12-07T09:34:29.693Z,19.00
2018-12-07T09:36:59.560Z,18.03
2018-12-07T09:39:29.449Z,18.07
2018-12-07T09:41:59.340Z,20.10
2018-12-07T09:44:29.184Z,20.77
2018-12-07T09:46:59.155Z,20.20
2018-12-07T09:49:29.072Z,20.00
2018-12-07T09:51:59.096Z,22.57
2018-12-07T09:54:29.286Z,21.67
2018-12-07T09:56:59.420Z,21.10
2018-12-07T09:59:29.298Z,19.83
2018-12-07T10:01:59.141Z,21.40
2018-12-07T10:04:29.165Z,23.33
2018-12-07T10:06:59.010Z,22.27
2018-12-07T10:09:28.993Z,20.70
2018-12-07T10:11:59.006Z,22.53
2018-12-07T10:14:29.020Z,21.87
2018-12-07T10:16:58.854Z,23.70
2018-12-07T10:19:28.744Z,26.97
2018-12-07T10:21:58.626Z,25.37
2018-12-07T10:24:28.670Z,23.67
2018-12-07T10:27:06.880Z,23.87
2018-12-07T10:29:36.895Z,24.07
2018-12-07T10:32:06.810Z,21.70
2018-12-07T10:34:36.723Z,21.30
2018-12-07T10:37:06.569Z,22.53
2018-12-07T10:39:36.472Z,21.00
2018-12-07T10:42:06.456Z,20.53
2018-12-07T10:44:36.476Z,20.30
2018-12-07T10:47:06.313Z,20.17
2018-12-07T10:49:36.257Z,19.80
2018-12-07T10:52:06.101Z,19.50
2018-12-07T10:54:36.130Z,20.10
2018-12-07T10:57:05.974Z,19.80
2018-12-07T10:59:35.821Z,19.23
2018-12-07T11:02:09.647Z,19.13
2018-12-07T11:04:43.469Z,21.33
2018-12-07T11:07:17.256Z,21.17
2018-12-07T11:09:51.092Z,19.83
2018-12-07T11:12:24.863Z,17.67
2018-12-07T11:14:58.729Z,17.03
2018-12-07T11:17:32.531Z,17.60
2018-12-07T11:20:06.589Z,18.47
2018-12-07T11:22:40.346Z,16.10
2018-12-07T11:25:14.209Z,17.17
2018-12-07T11:27:48.159Z,16.20
2018-12-07T11:30:21.990Z,14.90
2018-12-07T11:32:55.798Z,14.90
2018-12-07T11:35:29.880Z,15.40
2018-12-07T11:37:59.781Z,20.27
2018-12-07T11:40:29.858Z,16.97
2018-12-07T11:42:59.977Z,21.30
2018-12-07T11:45:29.872Z,26.53
2018-12-07T11:47:59.719Z,24.87
2018-12-07T11:50:29.619Z,26.23
2018-12-07T11:53:00.252Z,22.07
2018-12-07T11:55:30.103Z,19.97
2018-12-07T11:58:00.067Z,20.80
2018-12-07T12:00:29.987Z,21.30
2018-12-07T12:02:59.898Z,21.40
2018-12-07T12:05:29.906Z,20.90
2018-12-07T12:07:59.754Z,23.50
2018-12-07T12:10:29.666Z,24.53
2018-12-07T12:12:59.646Z,19.63
2018-12-07T12:15:29.665Z,22.07
2018-12-07T12:17:59.678Z,21.07
2018-12-07T12:20:29.591Z,19.80
2018-12-07T12:22:59.417Z,18.90
2018-12-07T12:25:29.316Z,20.83
2018-12-07T12:27:59.222Z,19.97
2018-12-07T12:30:29.247Z,20.37
2018-12-07T12:32:59.083Z,20.20
2018-12-07T12:35:29.313Z,19.13
2018-12-07T12:37:59.050Z,18.93
2018-12-07T12:40:29.000Z,19.87
2018-12-07T12:42:58.913Z,19.20
2018-12-07T12:45:28.803Z,19.83
2018-12-07T12:47:58.649Z,19.70
2018-12-07T12:50:32.527Z,19.70
2018-12-07T12:53:02.458Z,19.53
2018-12-07T12:55:32.533Z,18.73
2018-12-07T12:58:02.363Z,18.20
2018-12-07T13:00:32.211Z,17.53
2018-12-07T13:03:02.065Z,16.93
2018-12-07T13:05:32.021Z,15.83
2018-12-07T13:08:01.932Z,15.83
2018-12-07T13:10:31.882Z,14.40
2018-12-07T13:13:01.848Z,12.53
2018-12-07T13:15:31.690Z,12.53
2018-12-07T13:18:01.602Z,11.37
2018-12-07T13:20:31.411Z,11.80
2018-12-07T13:23:01.248Z,12.00
2018-12-07T13:25:31.235Z,12.20
2018-12-07T13:28:01.191Z,11.80
2018-12-07T13:30:31.163Z,11.03
2018-12-07T13:33:00.946Z,12.50
2018-12-07T13:35:31.298Z,11.70
2018-12-07T13:38:01.507Z,12.23
2018-12-07T13:40:31.703Z,12.57
2018-12-07T13:43:02.074Z,11.87
2018-12-07T13:45:31.993Z,11.23
2018-12-07T13:48:02.127Z,11.23
2018-12-07T13:50:36.219Z,11.07
2018-12-07T13:53:06.191Z,11.67
2018-12-07T13:55:36.068Z,10.53
2018-12-07T13:58:06.307Z,11.30
2018-12-07T14:00:36.475Z,11.47
2018-12-07T14:03:06.362Z,10.63
2018-12-07T14:05:36.437Z,11.27
2018-12-07T14:08:06.427Z,10.37
2018-12-07T14:10:37.005Z,11.03
2018-12-07T14:13:07.102Z,10.10
2018-12-07T14:15:36.918Z,10.70
2018-12-07T14:18:07.207Z,9.97
2018-12-07T14:20:37.362Z,9.10
2018-12-07T14:23:07.433Z,9.03
2018-12-07T14:25:37.722Z,9.40
2018-12-07T14:28:07.713Z,8.73
2018-12-07T14:30:37.624Z,9.40
2018-12-07T14:33:07.605Z,9.40
2018-12-07T14:35:38.013Z,8.97
2018-12-07T14:38:08.172Z,8.67
2018-12-07T14:40:38.015Z,9.07
2018-12-07T14:43:07.960Z,9.30
2018-12-07T14:45:38.322Z,10.00
2018-12-07T14:48:08.397Z,9.77
2018-12-07T14:50:38.587Z,9.37
2018-12-07T14:53:08.609Z,10.20
2018-12-07T14:55:38.824Z,10.17
2018-12-07T14:58:08.884Z,11.50
2018-12-07T15:00:38.884Z,10.83
2018-12-07T15:03:09.018Z,9.67
2018-12-07T15:05:39.048Z,9.47
2018-12-07T15:08:09.165Z,10.03
2018-12-07T15:10:39.044Z,9.83
2018-12-07T15:13:08.950Z,9.50
2018-12-07T15:15:39.134Z,11.20
2018-12-07T15:18:09.182Z,10.87
2018-12-07T15:20:39.106Z,12.27
2018-12-07T15:23:09.097Z,13.20
2018-12-07T15:25:39.124Z,13.97
2018-12-07T15:28:09.354Z,14.60
2018-12-07T15:30:39.775Z,14.60
2018-12-07T15:33:10.237Z,13.90
2018-12-07T15:35:40.794Z,14.97
2018-12-07T15:38:10.880Z,13.80
2018-12-07T15:40:41.233Z,15.20
2018-12-07T15:43:11.324Z,14.20
2018-12-07T15:45:41.416Z,15.57
2018-12-07T15:48:11.639Z,14.93
2018-12-07T15:50:41.807Z,14.77
2018-12-07T15:53:12.030Z,15.77
2018-12-07T15:55:41.913Z,15.70
2018-12-07T15:58:11.906Z,21.30
2018-12-07T16:00:42.101Z,20.37
2018-12-07T16:03:12.780Z,23.70
2018-12-07T16:05:43.238Z,24.20
2018-12-07T16:08:13.797Z,26.27
2018-12-07T16:10:49.064Z,28.30
2018-12-07T16:13:15.817Z,29.93
2018-12-07T16:15:45.824Z,27.30
2018-12-07T16:18:16.301Z,24.23
2018-12-07T16:20:49.621Z,23.57
2018-12-07T16:23:20.090Z,20.70
2018-12-07T16:25:50.061Z,17.40
2018-12-07T16:28:21.022Z,16.90
2018-12-07T16:30:51.108Z,17.07
2018-12-07T16:33:21.170Z,16.27
2018-12-07T16:35:51.347Z,15.40
2018-12-07T16:38:21.544Z,14.30
2018-12-07T16:40:51.688Z,17.67
2018-12-07T16:43:21.825Z,20.17
2018-12-07T16:45:52.093Z,22.43
2018-12-07T16:48:22.321Z,26.20
2018-12-07T16:50:53.556Z,32.93
2018-12-07T16:53:23.677Z,39.90
2018-12-07T16:55:53.906Z,46.50
2018-12-07T16:58:24.438Z,54.00
2018-12-07T17:00:54.597Z,59.50
2018-12-07T17:03:24.435Z,58.87
2018-12-07T17:05:54.768Z,59.43
2018-12-07T17:08:24.705Z,58.83
2018-12-07T17:10:54.626Z,60.30
2018-12-07T17:13:24.789Z,54.07
2018-12-07T17:15:54.852Z,53.90
2018-12-07T17:18:24.806Z,55.00
2018-12-07T17:20:54.763Z,53.27
2018-12-07T17:23:24.812Z,55.60
2018-12-07T17:25:55.057Z,53.37
2018-12-07T17:28:25.327Z,56.40
2018-12-07T17:30:55.565Z,52.73
2018-12-07T17:33:25.825Z,46.43
2018-12-07T17:35:55.672Z,49.50
2018-12-07T17:38:26.102Z,52.67
2018-12-07T17:40:56.091Z,55.60
2018-12-07T17:43:26.165Z,53.73
2018-12-07T17:45:56.095Z,55.73
2018-12-07T17:48:26.336Z,56.30
2018-12-07T17:50:57.564Z,53.67
2018-12-07T17:53:28.471Z,53.73
2018-12-07T17:55:58.561Z,52.73
2018-12-07T17:58:28.583Z,52.87
2018-12-07T18:00:58.560Z,54.63
2018-12-07T18:03:28.601Z,55.37
2018-12-07T18:05:58.429Z,54.10
2018-12-07T18:08:28.485Z,54.73
2018-12-07T18:10:58.433Z,51.93
2018-12-07T18:13:28.590Z,55.03
2018-12-07T18:15:58.662Z,49.80
2018-12-07T18:18:28.694Z,49.50
2018-12-07T18:20:59.009Z,47.87
2018-12-07T18:23:29.245Z,48.27
2018-12-07T18:25:59.513Z,40.60
2018-12-07T18:28:31.135Z,41.07
2018-12-07T18:31:01.315Z,39.07
2018-12-07T18:33:31.422Z,38.60
2018-12-07T18:36:01.569Z,36.60
2018-12-07T18:38:31.803Z,37.37
2018-12-07T18:41:04.781Z,33.47
2018-12-07T18:43:37.261Z,31.93
2018-12-07T18:46:07.609Z,30.20
2018-12-07T18:48:44.365Z,29.90
2018-12-07T18:51:15.045Z,29.00
2018-12-07T18:53:45.255Z,29.83
2018-12-07T18:56:18.808Z,30.43
2018-12-07T18:58:52.128Z,28.73
2018-12-07T19:01:25.517Z,28.00
2018-12-07T19:03:58.689Z,26.63
2018-12-07T19:06:28.642Z,26.67
2018-12-07T19:09:00.141Z,27.20
2018-12-07T19:11:30.195Z,26.43
2018-12-07T19:14:05.683Z,25.83
2018-12-07T19:16:36.386Z,25.87
2018-12-07T19:19:06.482Z,24.20
2018-12-07T19:21:36.609Z,24.70
2018-12-07T19:24:09.586Z,25.20
2018-12-07T19:26:40.376Z,24.80
2018-12-07T19:29:10.363Z,24.93
2018-12-07T19:31:40.576Z,24.20
2018-12-07T19:34:11.256Z,24.00
2018-12-07T19:36:42.383Z,23.40
2018-12-07T19:39:20.132Z,24.63
2018-12-07T19:41:50.110Z,23.57
2018-12-07T19:44:20.163Z,22.77
2018-12-07T19:46:57.545Z,23.80
2018-12-07T19:49:29.214Z,23.80
2018-12-07T19:51:59.883Z,22.30
2018-12-07T19:54:30.062Z,21.67
2018-12-07T19:57:03.520Z,21.20
2018-12-07T19:59:39.627Z,20.00
2018-12-07T20:02:11.051Z,20.47
2018-12-07T20:04:42.469Z,20.17
2018-12-07T20:07:12.488Z,21.77
2018-12-07T20:09:42.478Z,20.10
2018-12-07T20:12:15.742Z,22.33
2018-12-07T20:14:45.732Z,20.50
2018-12-07T20:17:19.092Z,20.27
2018-12-07T20:19:49.407Z,20.03
2018-12-07T20:22:21.557Z,20.40
2018-12-07T20:24:52.560Z,21.80
2018-12-07T20:27:23.961Z,22.17
2018-12-07T20:29:58.150Z,22.90
2018-12-07T20:32:28.916Z,23.30
2018-12-07T20:35:00.178Z,24.27
2018-12-07T20:40:09.413Z,26.07
2018-12-07T20:42:39.378Z,26.73
2018-12-07T20:45:10.935Z,27.47
2018-12-07T20:47:44.391Z,26.90
2018-12-07T20:50:18.182Z,25.57
2018-12-07T20:52:49.935Z,27.40
2018-12-07T20:55:22.999Z,28.20
2018-12-07T20:57:54.138Z,28.70
2018-12-07T21:00:24.113Z,29.93
2018-12-07T21:02:59.200Z,30.87
2018-12-07T21:08:56.992Z,31.90
2018-12-07T21:11:39.842Z,39.70
2018-12-07T21:14:23.015Z,37.27
2018-12-07T21:20:04.836Z,42.53
2018-12-07T21:22:38.029Z,43.67
2018-12-07T21:25:08.302Z,45.00
2018-12-07T21:27:41.691Z,43.30
2018-12-07T21:33:09.064Z,52.50
2018-12-07T21:35:54.753Z,58.77
2018-12-07T21:38:25.256Z,61.10
2018-12-07T21:40:56.422Z,66.30
2018-12-07T21:43:26.683Z,64.40
2018-12-07T21:45:56.842Z,65.70
2018-12-07T21:48:30.430Z,65.63
2018-12-07T21:51:13.960Z,69.20
2018-12-07T21:53:44.221Z,73.77
2018-12-07T21:56:15.851Z,68.97
2018-12-07T21:58:49.369Z,66.03
2018-12-07T22:01:19.818Z,81.13
2018-12-07T22:03:49.991Z,75.37
2018-12-07T22:06:20.095Z,69.83
2018-12-07T22:08:50.612Z,68.97
2018-12-07T22:11:21.081Z,61.17
2018-12-07T22:13:51.010Z,59.50
2018-12-07T22:16:21.302Z,62.73
2018-12-07T22:18:51.544Z,67.00
2018-12-07T22:21:21.953Z,75.10
2018-12-07T22:23:52.064Z,100.80
2018-12-07T22:26:22.079Z,83.60
2018-12-07T22:28:52.407Z,77.40
2018-12-07T22:31:22.545Z,75.73
2018-12-07T22:33:52.808Z,72.97
2018-12-07T22:36:23.029Z,76.47
2018-12-07T22:38:53.222Z,82.70
2018-12-07T22:41:23.209Z,72.20
2018-12-07T22:44:00.141Z,73.40
2018-12-07T22:46:30.121Z,71.17
2018-12-07T22:49:00.232Z,68.10
2018-12-07T22:51:30.841Z,64.53
2018-12-07T22:54:00.848Z,65.37
2018-12-07T22:56:30.858Z,67.83
2018-12-07T22:59:00.882Z,80.87
2018-12-07T23:01:31.008Z,55.27
2018-12-07T23:04:00.925Z,57.33
2018-12-07T23:06:30.893Z,55.57
2018-12-07T23:09:00.857Z,55.77
2018-12-07T23:11:30.872Z,56.13
2018-12-07T23:14:00.901Z,52.60
2018-12-07T23:16:31.061Z,51.33
2018-12-07T23:19:07.667Z,47.67
2018-12-07T23:21:37.779Z,46.50
2018-12-07T23:24:07.831Z,46.73
2018-12-07T23:26:37.918Z,45.10
2018-12-07T23:31:59.869Z,44.53
2018-12-07T23:34:29.875Z,40.83
2018-12-07T23:36:59.887Z,44.10
2018-12-07T23:39:29.838Z,37.77
2018-12-07T23:41:59.918Z,38.13
2018-12-07T23:44:29.931Z,35.37
2018-12-07T23:47:00.317Z,32.73
2018-12-07T23:49:30.378Z,29.87
2018-12-07T23:52:00.355Z,28.77
2018-12-07T23:54:30.420Z,26.07
2018-12-07T23:57:00.528Z,26.47
2018-12-07T23:59:30.457Z,26.80
